createdAt,value
2019-02-05T00:02:01.325Z,5.37
2019-02-05T00:04:33.062Z,8.43
2019-02-05T00:07:03.518Z,6.73
2019-02-05T00:09:33.298Z,7.13
2019-02-05T00:12:03.993Z,8.30
2019-02-05T00:14:33.598Z,5.37
2019-02-05T00:17:05.188Z,7.27
2019-02-05T00:19:35.143Z,8.37
2019-02-05T00:22:05.660Z,5.80
2019-02-05T00:24:35.273Z,7.17
2019-02-05T00:27:05.515Z,6.70
2019-02-05T00:29:35.716Z,7.97
2019-02-05T00:32:06.067Z,8.60
2019-02-05T00:34:37.576Z,5.87
2019-02-05T00:37:07.254Z,8.10
2019-02-05T00:39:37.421Z,8.60
2019-02-05T00:42:07.698Z,9.27
2019-02-05T00:44:37.553Z,8.23
2019-02-05T00:47:07.555Z,7.00
2019-02-05T00:49:37.750Z,9.33
2019-02-05T00:52:08.041Z,7.27
2019-02-05T00:54:38.185Z,6.77
2019-02-05T00:57:08.104Z,7.87
2019-02-05T00:59:37.747Z,8.93
2019-02-05T01:02:07.964Z,6.53
2019-02-05T01:04:38.358Z,7.80
2019-02-05T01:07:08.094Z,8.83
2019-02-05T01:09:39.396Z,8.10
2019-02-05T01:12:09.494Z,7.80
2019-02-05T01:14:39.627Z,8.03
2019-02-05T01:17:09.402Z,7.33
2019-02-05T01:19:39.887Z,6.77
2019-02-05T01:22:10.259Z,8.17
2019-02-05T01:24:40.380Z,8.10
2019-02-05T01:27:10.296Z,10.27
2019-02-05T01:29:40.281Z,8.03
2019-02-05T01:32:09.870Z,9.77
2019-02-05T01:34:39.797Z,8.57
2019-02-05T01:37:09.543Z,7.60
2019-02-05T01:39:39.774Z,6.93
2019-02-05T01:42:09.560Z,7.93
2019-02-05T01:44:39.272Z,8.33
2019-02-05T01:47:09.187Z,13.50
2019-02-05T01:49:39.361Z,9.77
2019-02-05T01:52:09.096Z,9.97
2019-02-05T01:54:39.239Z,8.23
2019-02-05T01:57:09.195Z,9.37
2019-02-05T01:59:39.060Z,8.57
2019-02-05T02:02:08.671Z,11.10
2019-02-05T02:04:38.212Z,10.53
2019-02-05T02:07:08.107Z,6.87
2019-02-05T02:09:37.679Z,7.87
2019-02-05T02:12:07.754Z,8.07
2019-02-05T02:14:37.507Z,6.67
2019-02-05T02:17:07.490Z,8.67
2019-02-05T02:19:37.442Z,9.83
2019-02-05T02:22:07.238Z,8.63
2019-02-05T02:24:37.271Z,8.97
2019-02-05T02:27:07.575Z,6.63
2019-02-05T02:29:37.621Z,8.17
2019-02-05T02:32:08.208Z,9.30
2019-02-05T02:34:37.774Z,8.80
2019-02-05T02:37:07.300Z,7.40
2019-02-05T02:39:37.315Z,7.83
2019-02-05T02:42:07.220Z,7.43
2019-02-05T02:44:37.064Z,10.03
2019-02-05T02:47:07.272Z,6.67
2019-02-05T02:49:38.023Z,9.53
2019-02-05T02:52:07.926Z,8.73
2019-02-05T02:54:37.628Z,8.20
2019-02-05T02:57:07.482Z,7.30
2019-02-05T02:59:37.193Z,6.50
2019-02-05T03:02:07.007Z,8.33
2019-02-05T03:04:36.732Z,6.80
2019-02-05T03:07:06.720Z,9.27
2019-02-05T03:09:36.529Z,7.83
2019-02-05T03:12:06.231Z,5.60
2019-02-05T03:14:36.027Z,7.50
2019-02-05T03:17:05.728Z,6.57
2019-02-05T03:19:35.280Z,8.60
2019-02-05T03:22:04.817Z,9.07
2019-02-05T03:24:34.398Z,9.40
2019-02-05T03:27:03.897Z,7.30
2019-02-05T03:29:33.461Z,6.50
2019-02-05T03:32:03.076Z,9.87
2019-02-05T03:34:32.893Z,8.17
2019-02-05T03:37:02.494Z,7.03
2019-02-05T03:39:32.063Z,9.47
2019-02-05T03:42:01.605Z,7.43
2019-02-05T03:44:31.163Z,7.40
2019-02-05T03:47:00.774Z,8.03
2019-02-05T03:49:30.550Z,8.23
2019-02-05T03:52:04.232Z,7.10
2019-02-05T03:55:02.218Z,8.47
2019-02-05T03:57:42.073Z,6.80
2019-02-05T04:00:24.263Z,6.47
2019-02-05T04:03:22.210Z,7.33
2019-02-05T04:06:14.110Z,6.70
2019-02-05T04:08:59.881Z,6.13
2019-02-05T04:11:48.923Z,7.37
2019-02-05T04:14:31.925Z,6.50
2019-02-05T04:17:38.800Z,6.07
2019-02-05T04:20:29.052Z,5.80
2019-02-05T04:23:24.219Z,5.73
2019-02-05T04:26:22.113Z,5.40
2019-02-05T04:29:14.326Z,7.53
2019-02-05T04:32:37.982Z,5.63
2019-02-05T04:35:47.436Z,6.53
2019-02-05T04:38:30.333Z,7.40
2019-02-05T04:41:10.349Z,5.70
2019-02-05T04:44:08.576Z,7.03
2019-02-05T04:47:07.976Z,6.87
2019-02-05T04:50:08.938Z,7.77
2019-02-05T04:53:01.072Z,5.43
2019-02-05T04:55:35.307Z,6.53
2019-02-05T05:01:14.202Z,5.43
2019-02-05T05:03:56.592Z,7.63
2019-02-05T05:06:51.594Z,7.27
2019-02-05T05:09:34.556Z,6.23
2019-02-05T05:12:04.272Z,8.07
2019-02-05T05:14:33.809Z,7.07
2019-02-05T05:17:03.666Z,9.20
2019-02-05T05:19:33.514Z,7.07
2019-02-05T05:22:04.078Z,7.20
2019-02-05T05:24:37.183Z,8.97
2019-02-05T05:27:06.964Z,6.77
2019-02-05T05:29:36.694Z,9.03
2019-02-05T05:32:06.460Z,7.83
2019-02-05T05:34:36.047Z,9.00
2019-02-05T05:37:03.997Z,8.60
2019-02-05T05:39:33.556Z,9.80
2019-02-05T05:42:03.090Z,7.83
2019-02-05T05:44:32.873Z,8.63
2019-02-05T05:47:02.824Z,10.30
2019-02-05T05:49:32.425Z,8.83
2019-02-05T05:52:01.983Z,9.00
2019-02-05T05:54:31.520Z,7.13
2019-02-05T05:57:02.370Z,10.43
2019-02-05T05:59:31.887Z,12.30
2019-02-05T06:02:01.495Z,11.53
2019-02-05T06:04:31.030Z,8.60
2019-02-05T06:07:00.563Z,8.77
2019-02-05T06:09:30.365Z,7.90
2019-02-05T06:11:59.971Z,9.47
2019-02-05T06:14:29.567Z,9.83
2019-02-05T06:16:59.104Z,9.70
2019-02-05T06:19:28.826Z,10.30
2019-02-05T06:21:58.396Z,10.57
2019-02-05T06:24:27.936Z,10.77
2019-02-05T06:26:57.477Z,11.50
2019-02-05T06:29:27.108Z,10.17
2019-02-05T06:31:56.645Z,12.13
2019-02-05T06:34:26.369Z,11.13
2019-02-05T06:36:55.921Z,11.50
2019-02-05T06:39:25.553Z,11.90
2019-02-05T06:41:55.149Z,11.70
2019-02-05T06:44:24.941Z,10.77
2019-02-05T06:46:54.694Z,13.03
2019-02-05T06:49:24.608Z,11.87
2019-02-05T06:51:54.158Z,13.83
2019-02-05T06:54:25.244Z,11.30
2019-02-05T06:56:56.357Z,12.53
2019-02-05T06:59:25.947Z,11.10
2019-02-05T07:01:55.488Z,12.60
2019-02-05T07:04:25.389Z,13.30
2019-02-05T07:06:55.006Z,14.70
2019-02-05T07:09:24.704Z,12.33
2019-02-05T07:11:55.003Z,13.23
2019-02-05T07:14:24.601Z,12.80
2019-02-05T07:16:55.298Z,12.73
2019-02-05T07:19:25.323Z,13.00
2019-02-05T07:21:54.943Z,13.20
2019-02-05T07:24:24.515Z,13.80
2019-02-05T07:26:54.077Z,13.63
2019-02-05T07:29:23.679Z,13.40
2019-02-05T07:31:53.294Z,15.53
2019-02-05T07:34:22.849Z,14.67
2019-02-05T07:36:53.716Z,14.97
2019-02-05T07:39:23.329Z,14.83
2019-02-05T07:41:52.887Z,14.80
2019-02-05T07:44:22.461Z,13.60
2019-02-05T07:46:52.070Z,12.77
2019-02-05T07:49:21.627Z,14.77
2019-02-05T07:51:52.279Z,13.93
2019-02-05T07:54:21.867Z,14.53
2019-02-05T07:56:51.440Z,14.60
2019-02-05T07:59:21.036Z,14.93
2019-02-05T08:01:50.650Z,15.93
2019-02-05T08:04:20.538Z,15.80
2019-02-05T08:06:50.650Z,15.97
2019-02-05T08:09:20.553Z,15.20
2019-02-05T08:11:50.106Z,16.30
2019-02-05T08:14:19.799Z,16.03
2019-02-05T08:16:49.406Z,17.33
2019-02-05T08:19:18.991Z,17.33
2019-02-05T08:21:48.577Z,17.40
2019-02-05T08:24:18.135Z,20.27
2019-02-05T08:26:47.702Z,15.77
2019-02-05T08:29:21.823Z,16.27
2019-02-05T08:31:48.573Z,17.97
2019-02-05T08:34:18.164Z,17.83
2019-02-05T08:36:47.782Z,16.83
2019-02-05T08:39:18.021Z,17.87
2019-02-05T08:41:47.740Z,19.27
2019-02-05T08:44:17.603Z,18.07
2019-02-05T08:46:47.180Z,20.37
2019-02-05T08:49:16.767Z,17.33
2019-02-05T08:51:46.356Z,20.47
2019-02-05T08:54:15.958Z,19.77
2019-02-05T08:56:45.524Z,17.97
2019-02-05T08:59:15.258Z,19.30
2019-02-05T09:01:44.904Z,18.90
2019-02-05T09:04:14.605Z,19.03
2019-02-05T09:06:44.179Z,18.40
2019-02-05T09:09:13.756Z,19.80
2019-02-05T09:11:43.348Z,18.20
2019-02-05T09:14:14.146Z,18.57
2019-02-05T09:16:43.997Z,19.97
2019-02-05T09:19:13.584Z,19.07
2019-02-05T09:21:43.157Z,17.73
2019-02-05T09:24:12.770Z,20.63
2019-02-05T09:26:42.369Z,20.60
2019-02-05T09:29:12.035Z,19.00
2019-02-05T09:31:42.001Z,19.50
2019-02-05T09:34:11.565Z,19.10
2019-02-05T09:36:41.147Z,18.47
2019-02-05T09:39:10.741Z,20.27
2019-02-05T09:41:40.375Z,19.60
2019-02-05T09:44:11.577Z,21.07
2019-02-05T09:46:41.377Z,18.60
2019-02-05T09:49:11.050Z,18.70
2019-02-05T09:51:40.632Z,20.50
2019-02-05T09:54:11.959Z,19.77
2019-02-05T09:56:41.563Z,18.43
2019-02-05T09:59:11.189Z,21.53
2019-02-05T10:01:40.898Z,18.93
2019-02-05T10:04:10.710Z,19.13
2019-02-05T10:06:43.255Z,18.30
2019-02-05T10:09:12.803Z,15.87
2019-02-05T10:11:42.674Z,17.77
2019-02-05T10:14:12.303Z,18.00
2019-02-05T10:16:43.354Z,18.33
2019-02-05T10:19:13.635Z,16.63
2019-02-05T10:21:43.279Z,16.83
2019-02-05T10:27:05.374Z,16.70
2019-02-05T10:29:35.331Z,17.63
2019-02-05T10:32:05.236Z,14.43
2019-02-05T10:34:34.823Z,16.33
2019-02-05T10:37:04.378Z,15.20
2019-02-05T10:39:33.946Z,15.27
2019-02-05T10:42:03.572Z,13.90
2019-02-05T10:44:33.158Z,14.67
2019-02-05T10:47:02.868Z,14.73
2019-02-05T10:49:32.481Z,16.27
2019-02-05T10:52:02.049Z,15.63
2019-02-05T10:54:31.610Z,16.23
2019-02-05T10:57:02.090Z,14.47
2019-02-05T10:59:31.692Z,15.53
2019-02-05T11:02:01.422Z,13.33
2019-02-05T11:04:30.986Z,15.63
2019-02-05T11:07:00.567Z,14.60
2019-02-05T11:09:30.151Z,14.07
2019-02-05T11:11:59.744Z,15.73
2019-02-05T11:14:29.302Z,13.40
2019-02-05T11:16:59.156Z,14.37
2019-02-05T11:19:28.730Z,14.13
2019-02-05T11:21:58.316Z,15.83
2019-02-05T11:24:27.883Z,12.30
2019-02-05T11:26:57.465Z,15.57
2019-02-05T11:29:27.364Z,14.87
2019-02-05T11:31:56.985Z,13.33
2019-02-05T11:34:26.649Z,16.47
2019-02-05T11:36:57.887Z,15.80
2019-02-05T11:39:27.470Z,18.80
2019-02-05T11:41:57.466Z,14.63
2019-02-05T11:44:27.034Z,15.30
2019-02-05T11:46:56.623Z,14.97
2019-02-05T11:49:26.478Z,15.77
2019-02-05T11:51:56.063Z,14.50
2019-02-05T11:54:25.614Z,18.73
2019-02-05T11:56:55.219Z,14.97
2019-02-05T11:59:24.793Z,14.83
2019-02-05T12:01:55.885Z,17.40
2019-02-05T12:04:25.876Z,13.47
2019-02-05T12:06:55.481Z,16.93
2019-02-05T12:09:25.969Z,14.97
2019-02-05T12:11:55.530Z,15.17
2019-02-05T12:14:25.119Z,15.43
2019-02-05T12:16:59.347Z,17.53
2019-02-05T12:19:28.939Z,15.63
2019-02-05T12:21:58.539Z,12.97
2019-02-05T12:24:30.387Z,16.87
2019-02-05T12:26:59.778Z,14.77
2019-02-05T12:29:29.452Z,15.23
2019-02-05T12:31:59.222Z,14.33
2019-02-05T12:34:30.357Z,16.33
2019-02-05T12:37:00.416Z,14.67
2019-02-05T12:39:30.777Z,15.20
2019-02-05T12:42:01.403Z,15.87
2019-02-05T12:44:31.051Z,14.30
2019-02-05T12:47:00.663Z,14.83
2019-02-05T12:49:30.249Z,14.37
2019-02-05T12:51:59.811Z,15.23
2019-02-05T12:54:29.406Z,14.50
2019-02-05T12:57:02.029Z,14.97
2019-02-05T12:59:34.922Z,14.80
2019-02-05T13:02:04.826Z,15.90
2019-02-05T13:04:34.696Z,14.03
2019-02-05T13:07:05.065Z,18.60
2019-02-05T13:09:34.613Z,18.13
2019-02-05T13:12:06.807Z,16.30
2019-02-05T13:14:36.431Z,14.00
2019-02-05T13:17:06.279Z,15.77
2019-02-05T13:19:35.825Z,13.23
2019-02-05T13:22:05.503Z,15.90
2019-02-05T13:24:37.104Z,18.07
2019-02-05T13:27:06.770Z,18.03
2019-02-05T13:29:36.349Z,18.90
2019-02-05T13:32:06.420Z,18.73
2019-02-05T13:34:39.029Z,18.50
2019-02-05T13:37:08.717Z,19.60
2019-02-05T13:39:38.294Z,18.47
2019-02-05T13:42:07.961Z,20.90
2019-02-05T13:44:37.543Z,20.80
2019-02-05T13:47:07.173Z,17.83
2019-02-05T13:49:36.762Z,20.47
2019-02-05T13:52:06.413Z,20.63
2019-02-05T13:54:37.382Z,21.03
2019-02-05T13:57:07.025Z,20.10
2019-02-05T13:59:39.614Z,18.93
2019-02-05T14:02:09.222Z,21.33
2019-02-05T14:04:41.956Z,19.27
2019-02-05T14:07:11.543Z,20.07
2019-02-05T14:09:41.125Z,20.40
2019-02-05T14:12:12.581Z,19.50
2019-02-05T14:14:46.893Z,19.63
2019-02-05T14:17:16.513Z,18.07
2019-02-05T14:19:46.068Z,17.67
2019-02-05T14:22:15.640Z,19.97
2019-02-05T14:24:45.290Z,19.67
2019-02-05T14:27:14.878Z,20.03
2019-02-05T14:29:44.449Z,20.03
2019-02-05T14:32:14.111Z,19.53
2019-02-05T14:34:43.717Z,21.53
2019-02-05T14:37:14.651Z,19.47
2019-02-05T14:39:44.494Z,21.63
2019-02-05T14:42:14.433Z,20.17
2019-02-05T14:44:44.000Z,22.37
2019-02-05T14:47:13.591Z,19.20
2019-02-05T14:49:43.159Z,23.20
2019-02-05T14:52:12.721Z,20.87
2019-02-05T14:54:42.373Z,20.33
2019-02-05T14:57:12.385Z,22.17
2019-02-05T14:59:42.290Z,20.17
2019-02-05T15:02:11.866Z,18.50
2019-02-05T15:04:41.452Z,20.50
2019-02-05T15:07:11.010Z,20.90
2019-02-05T15:09:40.608Z,20.20
2019-02-05T15:12:11.335Z,21.90
2019-02-05T15:14:40.937Z,21.30
2019-02-05T15:17:10.515Z,22.03
2019-02-05T15:19:40.093Z,20.63
2019-02-05T15:22:09.727Z,21.43
2019-02-05T15:24:41.007Z,21.90
2019-02-05T15:27:10.658Z,22.00
2019-02-05T15:29:40.446Z,18.90
2019-02-05T15:32:11.656Z,20.17
2019-02-05T15:34:41.236Z,21.47
2019-02-05T15:37:10.797Z,20.20
2019-02-05T15:39:40.659Z,22.60
2019-02-05T15:42:10.251Z,20.50
2019-02-05T15:44:39.824Z,23.27
2019-02-05T15:47:09.387Z,22.90
2019-02-05T15:49:38.962Z,21.83
2019-02-05T15:52:08.535Z,24.00
2019-02-05T15:54:38.124Z,22.03
2019-02-05T15:57:07.695Z,24.40
2019-02-05T15:59:37.259Z,22.83
2019-02-05T16:02:07.163Z,24.83
2019-02-05T16:04:37.006Z,21.37
2019-02-05T16:07:06.746Z,23.80
2019-02-05T16:09:36.313Z,23.57
2019-02-05T16:12:06.063Z,24.07
2019-02-05T16:14:35.637Z,26.27
2019-02-05T16:17:07.190Z,23.20
2019-02-05T16:19:36.822Z,25.50
2019-02-05T16:22:06.518Z,25.90
2019-02-05T16:24:36.246Z,26.10
2019-02-05T16:27:10.323Z,24.90
2019-02-05T16:29:39.915Z,25.60
2019-02-05T16:32:17.362Z,23.17
2019-02-05T16:34:40.803Z,24.47
2019-02-05T16:37:10.665Z,23.33
2019-02-05T16:39:40.270Z,24.47
2019-02-05T16:42:10.102Z,26.47
2019-02-05T16:44:39.660Z,24.67
2019-02-05T16:47:09.229Z,24.70
2019-02-05T16:49:38.804Z,25.63
2019-02-05T16:52:08.565Z,20.87
2019-02-05T16:54:38.599Z,23.90
2019-02-05T16:57:08.945Z,25.70
2019-02-05T16:59:38.581Z,23.37
2019-02-05T17:02:09.588Z,27.73
2019-02-05T17:04:39.227Z,20.93
2019-02-05T17:07:09.841Z,24.37
2019-02-05T17:09:40.355Z,25.20
2019-02-05T17:12:10.521Z,25.93
2019-02-05T17:14:41.420Z,25.67
2019-02-05T17:17:12.918Z,28.83
2019-02-05T17:19:43.027Z,26.40
2019-02-05T17:22:12.584Z,26.03
2019-02-05T17:24:42.142Z,24.67
2019-02-05T17:27:12.021Z,26.40
2019-02-05T17:29:41.595Z,24.40
2019-02-05T17:32:11.247Z,25.93
2019-02-05T17:34:40.895Z,24.37
2019-02-05T17:37:10.465Z,24.53
2019-02-05T17:39:40.147Z,22.17
2019-02-05T17:42:09.734Z,21.67
2019-02-05T17:44:39.303Z,18.37
2019-02-05T17:47:10.670Z,21.60
2019-02-05T17:49:40.228Z,21.37
2019-02-05T17:52:09.913Z,22.80
2019-02-05T17:54:40.421Z,21.73
2019-02-05T17:57:09.974Z,17.03
2019-02-05T17:59:39.543Z,17.83
2019-02-05T18:02:09.668Z,18.10
2019-02-05T18:04:39.242Z,17.93
2019-02-05T18:07:08.823Z,16.43
2019-02-05T18:09:38.419Z,17.67
2019-02-05T18:12:08.066Z,16.87
2019-02-05T18:14:37.657Z,18.10
2019-02-05T18:17:08.247Z,16.23
2019-02-05T18:19:37.853Z,16.83
2019-02-05T18:22:08.166Z,16.03
2019-02-05T18:24:37.726Z,18.03
2019-02-05T18:27:07.560Z,17.07
2019-02-05T18:29:37.381Z,16.00
2019-02-05T18:32:07.891Z,18.53
2019-02-05T18:34:37.964Z,19.43
2019-02-05T18:37:08.012Z,18.23
2019-02-05T18:39:39.870Z,16.27
2019-02-05T18:42:08.995Z,17.83
2019-02-05T18:44:39.310Z,17.57
2019-02-05T18:47:10.724Z,15.53
2019-02-05T18:49:44.779Z,17.73
2019-02-05T18:52:16.535Z,18.87
2019-02-05T18:54:48.181Z,14.70
2019-02-05T18:57:18.463Z,17.80
2019-02-05T18:59:48.673Z,17.93
2019-02-05T19:02:18.825Z,17.73
2019-02-05T19:04:48.984Z,17.50
2019-02-05T19:07:18.777Z,17.47
2019-02-05T19:09:48.473Z,22.27
2019-02-05T19:12:18.598Z,21.40
2019-02-05T19:14:48.442Z,21.63
2019-02-05T19:17:18.303Z,35.50
2019-02-05T19:19:48.032Z,24.97
2019-02-05T19:22:18.056Z,35.43
2019-02-05T19:24:50.054Z,21.37
2019-02-05T19:27:21.827Z,43.43
2019-02-05T19:29:51.594Z,24.60
2019-02-05T19:32:22.765Z,83.43
2019-02-05T19:34:52.497Z,41.67
2019-02-05T19:37:22.479Z,31.60
2019-02-05T19:39:52.753Z,27.87
2019-02-05T19:42:22.682Z,21.33
2019-02-05T19:44:55.323Z,21.27
2019-02-05T19:47:26.988Z,23.47
2019-02-05T19:49:57.157Z,20.43
2019-02-05T19:52:28.365Z,18.97
2019-02-05T19:55:00.384Z,18.23
2019-02-05T19:57:30.583Z,19.17
2019-02-05T20:00:01.171Z,18.03
2019-02-05T20:02:32.491Z,18.43
2019-02-05T20:05:02.545Z,18.00
2019-02-05T20:07:36.340Z,17.97
2019-02-05T20:10:09.943Z,18.33
2019-02-05T20:12:40.821Z,16.33
2019-02-05T20:15:15.197Z,16.20
2019-02-05T20:17:45.161Z,17.07
2019-02-05T20:20:22.659Z,16.43
2019-02-05T20:22:53.017Z,17.10
2019-02-05T20:25:23.940Z,17.27
2019-02-05T20:27:53.688Z,18.63
2019-02-05T20:30:25.837Z,18.17
2019-02-05T20:32:55.993Z,16.80
2019-02-05T20:35:26.195Z,16.00
2019-02-05T20:37:57.066Z,15.57
2019-02-05T20:40:28.043Z,18.23
2019-02-05T20:42:58.678Z,17.07
2019-02-05T20:45:31.806Z,18.07
2019-02-05T20:48:01.544Z,17.83
2019-02-05T20:50:32.979Z,18.30
2019-02-05T20:53:13.066Z,19.63
2019-02-05T20:55:35.750Z,15.50
2019-02-05T20:58:06.202Z,18.20
2019-02-05T21:00:35.785Z,16.23
2019-02-05T21:03:05.510Z,18.23
2019-02-05T21:05:35.123Z,19.53
2019-02-05T21:08:04.799Z,15.87
2019-02-05T21:10:36.225Z,16.50
2019-02-05T21:13:06.397Z,16.93
2019-02-05T21:15:36.386Z,15.37
2019-02-05T21:18:07.042Z,14.53
2019-02-05T21:20:38.531Z,15.03
2019-02-05T21:23:15.364Z,15.83
2019-02-05T21:25:45.255Z,17.60
2019-02-05T21:28:16.756Z,18.53
2019-02-05T21:30:47.595Z,16.70
2019-02-05T21:33:19.008Z,16.80
2019-02-05T21:35:49.289Z,18.77
2019-02-05T21:38:18.844Z,17.97
2019-02-05T21:40:48.404Z,16.17
2019-02-05T21:43:22.375Z,16.23
2019-02-05T21:45:52.198Z,17.97
2019-02-05T21:48:22.160Z,19.90
2019-02-05T21:50:51.730Z,17.40
2019-02-05T21:53:21.324Z,17.83
2019-02-05T21:55:51.144Z,17.37
2019-02-05T21:58:20.734Z,16.07
2019-02-05T22:00:50.311Z,17.33
2019-02-05T22:03:19.872Z,18.20
2019-02-05T22:05:49.516Z,19.80
2019-02-05T22:08:19.641Z,21.47
2019-02-05T22:10:49.784Z,16.87
2019-02-05T22:13:19.447Z,17.13
2019-02-05T22:15:49.358Z,20.27
2019-02-05T22:18:18.931Z,19.87
2019-02-05T22:20:48.501Z,15.50
2019-02-05T22:23:18.256Z,16.17
2019-02-05T22:25:47.827Z,14.83
2019-02-05T22:28:20.466Z,15.37
2019-02-05T22:30:48.707Z,14.83
2019-02-05T22:33:18.267Z,16.73
2019-02-05T22:35:47.811Z,17.43
2019-02-05T22:38:17.402Z,14.50
2019-02-05T22:40:46.983Z,14.37
2019-02-05T22:43:16.752Z,16.30
2019-02-05T22:45:46.307Z,16.07
2019-02-05T22:48:15.871Z,16.77
2019-02-05T22:50:47.583Z,18.37
2019-02-05T22:53:17.407Z,15.13
2019-02-05T22:55:47.294Z,17.03
2019-02-05T22:58:16.869Z,17.90
2019-02-05T23:01:05.780Z,20.07
2019-02-05T23:03:42.401Z,18.67
2019-02-05T23:06:34.735Z,16.40
2019-02-05T23:09:20.955Z,16.37
2019-02-05T23:12:06.663Z,15.77
2019-02-05T23:14:36.224Z,17.83
2019-02-05T23:17:06.253Z,15.83
2019-02-05T23:19:35.911Z,16.97
2019-02-05T23:22:05.615Z,16.90
2019-02-05T23:24:35.133Z,16.37
2019-02-05T23:27:04.774Z,17.70
2019-02-05T23:29:34.374Z,16.23
2019-02-05T23:32:04.163Z,16.27
2019-02-05T23:34:33.791Z,15.47
2019-02-05T23:37:04.771Z,15.93
2019-02-05T23:39:34.324Z,14.80
2019-02-05T23:42:04.109Z,16.30
2019-02-05T23:44:33.675Z,15.47
2019-02-05T23:47:03.201Z,15.87
2019-02-05T23:49:32.822Z,15.03
2019-02-05T23:52:02.548Z,16.03
2019-02-05T23:54:32.091Z,15.30
2019-02-05T23:57:02.007Z,14.97
2019-02-05T23:59:31.559Z,15.30
